sensor_id;sensor_type;location;lat;lon;timestamp;P1;durP1;ratioP1;P2;durP2;ratioP2
17564;SDS011;62994;52.126;5.596;2023-04-03T00:01:05;0.98;;;0.98;;
17564;SDS011;62994;52.126;5.596;2023-04-03T00:03:32;1.75;;;1.30;;
17564;SDS011;62994;52.126;5.596;2023-04-03T00:06:01;1.10;;;1.10;;
17564;SDS011;62994;52.126;5.596;2023-04-03T00:08:31;2.50;;;1.05;;
17564;SDS011;62994;52.126;5.596;2023-04-03T00:11:03;1.30;;;1.20;;
17564;SDS011;62994;52.126;5.596;2023-04-03T00:13:32;1.37;;;1.13;;
17564;SDS011;62994;52.126;5.596;2023-04-03T00:16:00;1.17;;;1.17;;
17564;SDS011;62994;52.126;5.596;2023-04-03T00:18:31;1.98;;;1.30;;
17564;SDS011;62994;52.126;5.596;2023-04-03T00:20:58;1.27;;;1.17;;
17564;SDS011;62994;52.126;5.596;2023-04-03T00:23:41;1.38;;;1.25;;
17564;SDS011;62994;52.126;5.596;2023-04-03T00:26:12;1.10;;;1.10;;
17564;SDS011;62994;52.126;5.596;2023-04-03T00:28:39;1.53;;;1.33;;
17564;SDS011;62994;52.126;5.596;2023-04-03T00:31:13;2.03;;;1.50;;
17564;SDS011;62994;52.126;5.596;2023-04-03T00:33:54;1.70;;;1.60;;
17564;SDS011;62994;52.126;5.596;2023-04-03T00:36:25;1.13;;;1.13;;
17564;SDS011;62994;52.126;5.596;2023-04-03T00:38:52;1.93;;;1.10;;
17564;SDS011;62994;52.126;5.596;2023-04-03T00:41:25;2.28;;;1.30;;
17564;SDS011;62994;52.126;5.596;2023-04-03T00:43:52;1.20;;;1.10;;
17564;SDS011;62994;52.126;5.596;2023-04-03T00:46:19;1.00;;;1.00;;
17564;SDS011;62994;52.126;5.596;2023-04-03T00:48:47;1.33;;;1.23;;
17564;SDS011;62994;52.126;5.596;2023-04-03T00:51:16;3.08;;;1.30;;
17564;SDS011;62994;52.126;5.596;2023-04-03T00:53:50;1.15;;;1.05;;
17564;SDS011;62994;52.126;5.596;2023-04-03T00:56:21;2.03;;;1.30;;
17564;SDS011;62994;52.126;5.596;2023-04-03T00:58:51;1.47;;;1.37;;
17564;SDS011;62994;52.126;5.596;2023-04-03T01:01:24;1.35;;;1.25;;
17564;SDS011;62994;52.126;5.596;2023-04-03T01:03:52;1.80;;;1.20;;
17564;SDS011;62994;52.126;5.596;2023-04-03T01:06:20;1.30;;;1.10;;
17564;SDS011;62994;52.126;5.596;2023-04-03T01:09:00;2.03;;;1.13;;
17564;SDS011;62994;52.126;5.596;2023-04-03T01:11:27;2.00;;;1.13;;
17564;SDS011;62994;52.126;5.596;2023-04-03T01:13:54;1.10;;;1.00;;
17564;SDS011;62994;52.126;5.596;2023-04-03T01:16:21;1.30;;;1.20;;
17564;SDS011;62994;52.126;5.596;2023-04-03T01:18:54;2.27;;;1.57;;
17564;SDS011;62994;52.126;5.596;2023-04-03T01:21:43;1.50;;;1.30;;
17564;SDS011;62994;52.126;5.596;2023-04-03T01:24:33;2.87;;;1.50;;
17564;SDS011;62994;52.126;5.596;2023-04-03T01:27:04;1.53;;;1.40;;
17564;SDS011;62994;52.126;5.596;2023-04-03T01:29:33;1.27;;;1.20;;
17564;SDS011;62994;52.126;5.596;2023-04-03T01:32:03;3.37;;;1.50;;
17564;SDS011;62994;52.126;5.596;2023-04-03T01:34:30;3.60;;;1.40;;
17564;SDS011;62994;52.126;5.596;2023-04-03T01:36:57;1.80;;;1.10;;
17564;SDS011;62994;52.126;5.596;2023-04-03T01:39:24;1.60;;;1.50;;
17564;SDS011;62994;52.126;5.596;2023-04-03T01:41:51;1.37;;;1.27;;
17564;SDS011;62994;52.126;5.596;2023-04-03T01:44:19;3.67;;;1.57;;
17564;SDS011;62994;52.126;5.596;2023-04-03T01:46:47;3.83;;;1.40;;
17564;SDS011;62994;52.126;5.596;2023-04-03T01:49:15;1.30;;;1.20;;
17564;SDS011;62994;52.126;5.596;2023-04-03T01:51:42;1.47;;;1.27;;
17564;SDS011;62994;52.126;5.596;2023-04-03T01:54:15;1.53;;;1.43;;
17564;SDS011;62994;52.126;5.596;2023-04-03T01:56:42;1.37;;;1.27;;
17564;SDS011;62994;52.126;5.596;2023-04-03T01:59:11;1.40;;;1.30;;
17564;SDS011;62994;52.126;5.596;2023-04-03T02:01:38;1.90;;;1.30;;
17564;SDS011;62994;52.126;5.596;2023-04-03T02:04:05;1.67;;;1.20;;
17564;SDS011;62994;52.126;5.596;2023-04-03T02:06:33;3.30;;;1.60;;
17564;SDS011;62994;52.126;5.596;2023-04-03T02:09:01;1.93;;;1.23;;
17564;SDS011;62994;52.126;5.596;2023-04-03T02:11:27;5.53;;;1.90;;
17564;SDS011;62994;52.126;5.596;2023-04-03T02:13:54;1.50;;;1.40;;
17564;SDS011;62994;52.126;5.596;2023-04-03T02:16:26;1.73;;;1.13;;
17564;SDS011;62994;52.126;5.596;2023-04-03T02:18:53;3.40;;;1.30;;
17564;SDS011;62994;52.126;5.596;2023-04-03T02:21:20;1.60;;;1.23;;
17564;SDS011;62994;52.126;5.596;2023-04-03T02:23:49;1.40;;;1.30;;
17564;SDS011;62994;52.126;5.596;2023-04-03T02:26:16;3.00;;;1.40;;
17564;SDS011;62994;52.126;5.596;2023-04-03T02:28:43;1.60;;;1.50;;
17564;SDS011;62994;52.126;5.596;2023-04-03T02:31:10;2.77;;;1.30;;
17564;SDS011;62994;52.126;5.596;2023-04-03T02:33:38;2.58;;;1.80;;
17564;SDS011;62994;52.126;5.596;2023-04-03T02:36:05;2.57;;;2.10;;
17564;SDS011;62994;52.126;5.596;2023-04-03T02:38:36;2.13;;;1.77;;
17564;SDS011;62994;52.126;5.596;2023-04-03T02:41:05;1.63;;;1.53;;
17564;SDS011;62994;52.126;5.596;2023-04-03T02:43:36;3.60;;;1.40;;
17564;SDS011;62994;52.126;5.596;2023-04-03T02:46:05;3.77;;;1.60;;
17564;SDS011;62994;52.126;5.596;2023-04-03T02:48:35;4.77;;;1.53;;
17564;SDS011;62994;52.126;5.596;2023-04-03T02:51:03;1.77;;;1.57;;
17564;SDS011;62994;52.126;5.596;2023-04-03T02:53:36;2.40;;;1.30;;
17564;SDS011;62994;52.126;5.596;2023-04-03T02:56:04;2.73;;;1.43;;
17564;SDS011;62994;52.126;5.596;2023-04-03T02:58:31;1.97;;;1.87;;
17564;SDS011;62994;52.126;5.596;2023-04-03T03:00:58;2.27;;;1.50;;
17564;SDS011;62994;52.126;5.596;2023-04-03T03:03:25;1.63;;;1.43;;
17564;SDS011;62994;52.126;5.596;2023-04-03T03:06:00;1.77;;;1.20;;
17564;SDS011;62994;52.126;5.596;2023-04-03T03:08:28;2.20;;;1.70;;
17564;SDS011;62994;52.126;5.596;2023-04-03T03:10:55;1.73;;;1.63;;
17564;SDS011;62994;52.126;5.596;2023-04-03T03:13:23;1.80;;;1.50;;
17564;SDS011;62994;52.126;5.596;2023-04-03T03:15:50;2.03;;;1.60;;
17564;SDS011;62994;52.126;5.596;2023-04-03T03:18:17;1.73;;;1.43;;
17564;SDS011;62994;52.126;5.596;2023-04-03T03:20:44;1.90;;;1.80;;
17564;SDS011;62994;52.126;5.596;2023-04-03T03:23:12;1.60;;;1.50;;
17564;SDS011;62994;52.126;5.596;2023-04-03T03:25:44;1.57;;;1.47;;
17564;SDS011;62994;52.126;5.596;2023-04-03T03:28:14;5.37;;;1.30;;
17564;SDS011;62994;52.126;5.596;2023-04-03T03:30:42;1.87;;;1.30;;
17564;SDS011;62994;52.126;5.596;2023-04-03T03:33:11;2.83;;;1.60;;
17564;SDS011;62994;52.126;5.596;2023-04-03T03:35:42;2.70;;;2.07;;
17564;SDS011;62994;52.126;5.596;2023-04-03T03:38:14;2.97;;;1.70;;
17564;SDS011;62994;52.126;5.596;2023-04-03T03:40:41;3.87;;;1.50;;
17564;SDS011;62994;52.126;5.596;2023-04-03T03:43:10;2.23;;;1.70;;
17564;SDS011;62994;52.126;5.596;2023-04-03T03:45:37;2.40;;;1.67;;
17564;SDS011;62994;52.126;5.596;2023-04-03T03:48:09;3.57;;;1.73;;
17564;SDS011;62994;52.126;5.596;2023-04-03T03:50:36;2.53;;;2.07;;
17564;SDS011;62994;52.126;5.596;2023-04-03T03:53:03;4.00;;;1.77;;
17564;SDS011;62994;52.126;5.596;2023-04-03T03:55:30;2.13;;;1.50;;
17564;SDS011;62994;52.126;5.596;2023-04-03T03:57:57;2.70;;;1.80;;
17564;SDS011;62994;52.126;5.596;2023-04-03T04:00:25;3.57;;;1.67;;
17564;SDS011;62994;52.126;5.596;2023-04-03T04:02:52;2.70;;;1.70;;
17564;SDS011;62994;52.126;5.596;2023-04-03T04:05:20;3.43;;;2.07;;
17564;SDS011;62994;52.126;5.596;2023-04-03T04:07:47;3.70;;;1.60;;
17564;SDS011;62994;52.126;5.596;2023-04-03T04:10:14;1.50;;;1.40;;
17564;SDS011;62994;52.126;5.596;2023-04-03T04:12:41;3.47;;;1.50;;
17564;SDS011;62994;52.126;5.596;2023-04-03T04:15:08;5.13;;;1.73;;
17564;SDS011;62994;52.126;5.596;2023-04-03T04:17:38;4.82;;;1.70;;
17564;SDS011;62994;52.126;5.596;2023-04-03T04:20:06;1.90;;;1.53;;
17564;SDS011;62994;52.126;5.596;2023-04-03T04:22:35;2.50;;;1.70;;
17564;SDS011;62994;52.126;5.596;2023-04-03T04:25:03;3.33;;;1.30;;
17564;SDS011;62994;52.126;5.596;2023-04-03T04:27:30;4.40;;;1.77;;
17564;SDS011;62994;52.126;5.596;2023-04-03T04:29:57;5.47;;;1.77;;
17564;SDS011;62994;52.126;5.596;2023-04-03T04:32:24;4.33;;;1.33;;
17564;SDS011;62994;52.126;5.596;2023-04-03T04:34:52;1.87;;;1.40;;
17564;SDS011;62994;52.126;5.596;2023-04-03T04:37:19;3.83;;;1.80;;
17564;SDS011;62994;52.126;5.596;2023-04-03T04:39:48;3.13;;;1.83;;
17564;SDS011;62994;52.126;5.596;2023-04-03T04:42:15;2.67;;;1.90;;
17564;SDS011;62994;52.126;5.596;2023-04-03T04:44:42;3.70;;;2.10;;
17564;SDS011;62994;52.126;5.596;2023-04-03T04:47:09;2.10;;;1.57;;
17564;SDS011;62994;52.126;5.596;2023-04-03T04:49:37;5.10;;;1.63;;
17564;SDS011;62994;52.126;5.596;2023-04-03T04:52:07;1.93;;;1.70;;
17564;SDS011;62994;52.126;5.596;2023-04-03T04:54:34;4.60;;;2.10;;
17564;SDS011;62994;52.126;5.596;2023-04-03T04:57:03;1.90;;;1.77;;
17564;SDS011;62994;52.126;5.596;2023-04-03T04:59:30;3.13;;;1.90;;
17564;SDS011;62994;52.126;5.596;2023-04-03T05:01:59;3.67;;;1.93;;
17564;SDS011;62994;52.126;5.596;2023-04-03T05:04:28;3.43;;;1.83;;
17564;SDS011;62994;52.126;5.596;2023-04-03T05:06:55;2.77;;;1.77;;
17564;SDS011;62994;52.126;5.596;2023-04-03T05:09:39;1.63;;;1.53;;
17564;SDS011;62994;52.126;5.596;2023-04-03T05:12:08;2.87;;;1.60;;
17564;SDS011;62994;52.126;5.596;2023-04-03T05:14:35;3.07;;;1.60;;
17564;SDS011;62994;52.126;5.596;2023-04-03T05:17:02;5.50;;;1.57;;
17564;SDS011;62994;52.126;5.596;2023-04-03T05:19:34;3.00;;;1.60;;
17564;SDS011;62994;52.126;5.596;2023-04-03T05:22:01;3.27;;;1.80;;
17564;SDS011;62994;52.126;5.596;2023-04-03T05:24:28;5.67;;;1.70;;
17564;SDS011;62994;52.126;5.596;2023-04-03T05:26:55;5.63;;;1.80;;
17564;SDS011;62994;52.126;5.596;2023-04-03T05:29:24;2.33;;;1.70;;
17564;SDS011;62994;52.126;5.596;2023-04-03T05:31:50;4.10;;;1.23;;
17564;SDS011;62994;52.126;5.596;2023-04-03T05:34:18;4.43;;;2.07;;
17564;SDS011;62994;52.126;5.596;2023-04-03T05:36:45;2.03;;;1.77;;
17564;SDS011;62994;52.126;5.596;2023-04-03T05:39:12;2.37;;;1.60;;
17564;SDS011;62994;52.126;5.596;2023-04-03T05:41:39;3.67;;;1.87;;
17564;SDS011;62994;52.126;5.596;2023-04-03T05:44:07;5.33;;;2.03;;
17564;SDS011;62994;52.126;5.596;2023-04-03T05:46:37;2.00;;;1.60;;
17564;SDS011;62994;52.126;5.596;2023-04-03T05:49:04;5.80;;;1.67;;
17564;SDS011;62994;52.126;5.596;2023-04-03T05:51:32;4.67;;;1.97;;
17564;SDS011;62994;52.126;5.596;2023-04-03T05:54:03;4.70;;;1.83;;
17564;SDS011;62994;52.126;5.596;2023-04-03T05:56:35;3.93;;;2.20;;
17564;SDS011;62994;52.126;5.596;2023-04-03T05:59:02;2.43;;;1.93;;
17564;SDS011;62994;52.126;5.596;2023-04-03T06:01:29;2.30;;;2.10;;
17564;SDS011;62994;52.126;5.596;2023-04-03T06:03:58;3.03;;;2.23;;
17564;SDS011;62994;52.126;5.596;2023-04-03T06:06:25;8.30;;;2.00;;
17564;SDS011;62994;52.126;5.596;2023-04-03T06:08:52;6.23;;;1.90;;
17564;SDS011;62994;52.126;5.596;2023-04-03T06:11:20;6.80;;;1.77;;
17564;SDS011;62994;52.126;5.596;2023-04-03T06:13:50;5.03;;;1.87;;
17564;SDS011;62994;52.126;5.596;2023-04-03T06:16:17;2.53;;;1.70;;
17564;SDS011;62994;52.126;5.596;2023-04-03T06:18:44;2.57;;;1.60;;
17564;SDS011;62994;52.126;5.596;2023-04-03T06:21:12;3.57;;;1.87;;
17564;SDS011;62994;52.126;5.596;2023-04-03T06:23:40;4.77;;;2.03;;
17564;SDS011;62994;52.126;5.596;2023-04-03T06:26:07;1.97;;;1.87;;
17564;SDS011;62994;52.126;5.596;2023-04-03T06:28:37;2.00;;;1.70;;
17564;SDS011;62994;52.126;5.596;2023-04-03T06:31:04;3.77;;;1.63;;
17564;SDS011;62994;52.126;5.596;2023-04-03T06:33:31;2.60;;;1.97;;
17564;SDS011;62994;52.126;5.596;2023-04-03T06:36:00;2.83;;;1.63;;
17564;SDS011;62994;52.126;5.596;2023-04-03T06:38:32;4.27;;;1.93;;
17564;SDS011;62994;52.126;5.596;2023-04-03T06:41:03;1.60;;;1.50;;
17564;SDS011;62994;52.126;5.596;2023-04-03T06:43:30;1.80;;;1.70;;
17564;SDS011;62994;52.126;5.596;2023-04-03T06:48:46;2.97;;;2.13;;
17564;SDS011;62994;52.126;5.596;2023-04-03T06:51:16;2.93;;;1.83;;
17564;SDS011;62994;52.126;5.596;2023-04-03T06:53:46;4.50;;;1.60;;
17564;SDS011;62994;52.126;5.596;2023-04-03T06:56:13;4.00;;;2.00;;
17564;SDS011;62994;52.126;5.596;2023-04-03T06:58:41;3.87;;;1.73;;
17564;SDS011;62994;52.126;5.596;2023-04-03T07:01:09;2.37;;;1.83;;
17564;SDS011;62994;52.126;5.596;2023-04-03T07:03:37;3.47;;;1.73;;
17564;SDS011;62994;52.126;5.596;2023-04-03T07:06:06;5.77;;;2.37;;
17564;SDS011;62994;52.126;5.596;2023-04-03T07:08:34;4.70;;;1.63;;
17564;SDS011;62994;52.126;5.596;2023-04-03T07:11:02;4.07;;;1.70;;
17564;SDS011;62994;52.126;5.596;2023-04-03T07:13:31;2.20;;;1.60;;
17564;SDS011;62994;52.126;5.596;2023-04-03T07:16:01;4.37;;;1.70;;
17564;SDS011;62994;52.126;5.596;2023-04-03T07:18:30;1.70;;;1.60;;
17564;SDS011;62994;52.126;5.596;2023-04-03T07:20:57;2.53;;;1.77;;
17564;SDS011;62994;52.126;5.596;2023-04-03T07:23:32;2.10;;;1.70;;
17564;SDS011;62994;52.126;5.596;2023-04-03T07:26:01;4.23;;;1.50;;
17564;SDS011;62994;52.126;5.596;2023-04-03T07:28:29;2.43;;;1.50;;
17564;SDS011;62994;52.126;5.596;2023-04-03T07:30:59;2.47;;;1.47;;
17564;SDS011;62994;52.126;5.596;2023-04-03T07:33:27;1.60;;;1.50;;
17564;SDS011;62994;52.126;5.596;2023-04-03T07:35:54;2.80;;;1.57;;
17564;SDS011;62994;52.126;5.596;2023-04-03T07:38:21;2.17;;;1.60;;
17564;SDS011;62994;52.126;5.596;2023-04-03T07:40:48;2.43;;;1.43;;
17564;SDS011;62994;52.126;5.596;2023-04-03T07:43:19;3.07;;;1.60;;
17564;SDS011;62994;52.126;5.596;2023-04-03T07:45:47;2.07;;;1.43;;
17564;SDS011;62994;52.126;5.596;2023-04-03T07:48:16;2.03;;;1.07;;
17564;SDS011;62994;52.126;5.596;2023-04-03T07:50:45;3.00;;;1.67;;
17564;SDS011;62994;52.126;5.596;2023-04-03T07:53:12;2.67;;;1.27;;
17564;SDS011;62994;52.126;5.596;2023-04-03T07:55:40;1.53;;;1.27;;
17564;SDS011;62994;52.126;5.596;2023-04-03T07:58:09;1.57;;;1.07;;
17564;SDS011;62994;52.126;5.596;2023-04-03T08:00:38;3.40;;;1.37;;
17564;SDS011;62994;52.126;5.596;2023-04-03T08:03:05;2.90;;;1.50;;
17564;SDS011;62994;52.126;5.596;2023-04-03T08:05:35;1.73;;;1.00;;
17564;SDS011;62994;52.126;5.596;2023-04-03T08:08:03;1.42;;;1.33;;
17564;SDS011;62994;52.126;5.596;2023-04-03T08:10:31;3.43;;;1.20;;
17564;SDS011;62994;52.126;5.596;2023-04-03T08:12:59;7.20;;;1.37;;
17564;SDS011;62994;52.126;5.596;2023-04-03T08:15:26;1.40;;;1.30;;
17564;SDS011;62994;52.126;5.596;2023-04-03T08:17:59;4.77;;;0.90;;
17564;SDS011;62994;52.126;5.596;2023-04-03T08:20:27;1.65;;;1.20;;
17564;SDS011;62994;52.126;5.596;2023-04-03T08:22:58;2.63;;;1.05;;
17564;SDS011;62994;52.126;5.596;2023-04-03T08:25:26;3.22;;;1.35;;
17564;SDS011;62994;52.126;5.596;2023-04-03T08:27:54;3.28;;;1.65;;
17564;SDS011;62994;52.126;5.596;2023-04-03T08:30:21;2.15;;;1.05;;
17564;SDS011;62994;52.126;5.596;2023-04-03T08:32:48;1.52;;;1.00;;
17564;SDS011;62994;52.126;5.596;2023-04-03T08:35:16;0.70;;;0.70;;
17564;SDS011;62994;52.126;5.596;2023-04-03T08:37:45;1.65;;;1.15;;
17564;SDS011;62994;52.126;5.596;2023-04-03T08:40:13;0.80;;;0.80;;
17564;SDS011;62994;52.126;5.596;2023-04-03T08:42:44;1.92;;;0.90;;
17564;SDS011;62994;52.126;5.596;2023-04-03T08:45:21;0.88;;;0.88;;
17564;SDS011;62994;52.126;5.596;2023-04-03T08:47:55;0.82;;;0.82;;
17564;SDS011;62994;52.126;5.596;2023-04-03T08:50:28;0.80;;;0.80;;
17564;SDS011;62994;52.126;5.596;2023-04-03T08:52:59;0.70;;;0.70;;
17564;SDS011;62994;52.126;5.596;2023-04-03T08:55:32;1.35;;;0.80;;
17564;SDS011;62994;52.126;5.596;2023-04-03T08:58:03;1.13;;;0.80;;
17564;SDS011;62994;52.126;5.596;2023-04-03T09:00:34;1.80;;;0.98;;
17564;SDS011;62994;52.126;5.596;2023-04-03T09:03:11;0.52;;;0.52;;
17564;SDS011;62994;52.126;5.596;2023-04-03T09:05:41;1.13;;;0.68;;
17564;SDS011;62994;52.126;5.596;2023-04-03T09:08:15;0.38;;;0.38;;
17564;SDS011;62994;52.126;5.596;2023-04-03T09:13:27;0.77;;;0.68;;
17564;SDS011;62994;52.126;5.596;2023-04-03T09:15:59;1.67;;;0.95;;
17564;SDS011;62994;52.126;5.596;2023-04-03T09:18:32;0.50;;;0.50;;
17564;SDS011;62994;52.126;5.596;2023-04-03T09:21:08;0.50;;;0.50;;
17564;SDS011;62994;52.126;5.596;2023-04-03T09:23:47;2.22;;;0.60;;
17564;SDS011;62994;52.126;5.596;2023-04-03T09:26:18;0.50;;;0.50;;
17564;SDS011;62994;52.126;5.596;2023-04-03T09:28:51;1.10;;;0.85;;
17564;SDS011;62994;52.126;5.596;2023-04-03T09:31:22;1.55;;;0.55;;
17564;SDS011;62994;52.126;5.596;2023-04-03T09:33:52;0.30;;;0.30;;
17564;SDS011;62994;52.126;5.596;2023-04-03T09:36:40;0.40;;;0.40;;
17564;SDS011;62994;52.126;5.596;2023-04-03T09:39:10;0.85;;;0.30;;
17564;SDS011;62994;52.126;5.596;2023-04-03T09:41:40;0.75;;;0.30;;
17564;SDS011;62994;52.126;5.596;2023-04-03T09:44:20;0.55;;;0.30;;
17564;SDS011;62994;52.126;5.596;2023-04-03T09:46:48;0.22;;;0.22;;
17564;SDS011;62994;52.126;5.596;2023-04-03T09:49:16;0.68;;;0.32;;
17564;SDS011;62994;52.126;5.596;2023-04-03T09:51:45;0.65;;;0.65;;
17564;SDS011;62994;52.126;5.596;2023-04-03T09:57:10;1.10;;;0.40;;
17564;SDS011;62994;52.126;5.596;2023-04-03T09:59:43;1.15;;;0.40;;
17564;SDS011;62994;52.126;5.596;2023-04-03T10:02:30;0.47;;;0.40;;
17564;SDS011;62994;52.126;5.596;2023-04-03T10:05:01;0.55;;;0.40;;
17564;SDS011;62994;52.126;5.596;2023-04-03T10:07:31;0.52;;;0.30;;
17564;SDS011;62994;52.126;5.596;2023-04-03T10:10:01;1.02;;;0.55;;
17564;SDS011;62994;52.126;5.596;2023-04-03T10:12:29;0.57;;;0.50;;
17564;SDS011;62994;52.126;5.596;2023-04-03T10:14:57;0.40;;;0.40;;
17564;SDS011;62994;52.126;5.596;2023-04-03T10:17:32;0.45;;;0.45;;
17564;SDS011;62994;52.126;5.596;2023-04-03T10:20:07;0.52;;;0.43;;
17564;SDS011;62994;52.126;5.596;2023-04-03T10:22:51;1.02;;;0.60;;
17564;SDS011;62994;52.126;5.596;2023-04-03T10:25:29;0.35;;;0.30;;
17564;SDS011;62994;52.126;5.596;2023-04-03T10:28:03;0.82;;;0.40;;
17564;SDS011;62994;52.126;5.596;2023-04-03T10:30:40;0.22;;;0.22;;
17564;SDS011;62994;52.126;5.596;2023-04-03T10:33:18;0.45;;;0.45;;
17564;SDS011;62994;52.126;5.596;2023-04-03T10:35:56;0.22;;;0.22;;
17564;SDS011;62994;52.126;5.596;2023-04-03T10:38:33;0.77;;;0.50;;
17564;SDS011;62994;52.126;5.596;2023-04-03T10:41:07;1.05;;;0.50;;
17564;SDS011;62994;52.126;5.596;2023-04-03T10:43:54;1.00;;;0.50;;
17564;SDS011;62994;52.126;5.596;2023-04-03T10:46:27;0.43;;;0.40;;
17564;SDS011;62994;52.126;5.596;2023-04-03T10:49:13;2.50;;;0.47;;
17564;SDS011;62994;52.126;5.596;2023-04-03T10:51:50;0.43;;;0.38;;
17564;SDS011;62994;52.126;5.596;2023-04-03T10:54:26;0.85;;;0.70;;
17564;SDS011;62994;52.126;5.596;2023-04-03T10:57:00;0.40;;;0.40;;
17564;SDS011;62994;52.126;5.596;2023-04-03T10:59:30;6.13;;;1.00;;
17564;SDS011;62994;52.126;5.596;2023-04-03T11:01:59;2.67;;;0.60;;
17564;SDS011;62994;52.126;5.596;2023-04-03T11:04:37;0.65;;;0.65;;
17564;SDS011;62994;52.126;5.596;2023-04-03T11:07:08;0.47;;;0.47;;
17564;SDS011;62994;52.126;5.596;2023-04-03T11:09:43;2.03;;;0.60;;
17564;SDS011;62994;52.126;5.596;2023-04-03T11:12:14;0.52;;;0.52;;
17564;SDS011;62994;52.126;5.596;2023-04-03T11:14:45;0.50;;;0.50;;
17564;SDS011;62994;52.126;5.596;2023-04-03T11:17:22;0.55;;;0.50;;
17564;SDS011;62994;52.126;5.596;2023-04-03T11:19:57;0.95;;;0.57;;
17564;SDS011;62994;52.126;5.596;2023-04-03T11:22:28;1.67;;;1.00;;
17564;SDS011;62994;52.126;5.596;2023-04-03T11:25:02;2.28;;;0.55;;
17564;SDS011;62994;52.126;5.596;2023-04-03T11:27:35;1.30;;;0.77;;
17564;SDS011;62994;52.126;5.596;2023-04-03T11:30:07;0.50;;;0.50;;
17564;SDS011;62994;52.126;5.596;2023-04-03T11:32:53;0.73;;;0.68;;
17564;SDS011;62994;52.126;5.596;2023-04-03T11:35:29;0.50;;;0.50;;
17564;SDS011;62994;52.126;5.596;2023-04-03T11:37:58;0.65;;;0.50;;
17564;SDS011;62994;52.126;5.596;2023-04-03T11:40:32;1.23;;;0.77;;
17564;SDS011;62994;52.126;5.596;2023-04-03T11:43:05;0.40;;;0.40;;
17564;SDS011;62994;52.126;5.596;2023-04-03T11:48:42;0.57;;;0.50;;
17564;SDS011;62994;52.126;5.596;2023-04-03T12:03:30;0.60;;;0.60;;
17564;SDS011;62994;52.126;5.596;2023-04-03T12:09:31;1.20;;;0.68;;
17564;SDS011;62994;52.126;5.596;2023-04-03T12:12:01;0.60;;;0.60;;
17564;SDS011;62994;52.126;5.596;2023-04-03T12:14:52;0.60;;;0.60;;
17564;SDS011;62994;52.126;5.596;2023-04-03T12:17:25;1.00;;;0.90;;
17564;SDS011;62994;52.126;5.596;2023-04-03T12:19:54;2.70;;;0.80;;
17564;SDS011;62994;52.126;5.596;2023-04-03T12:22:21;0.80;;;0.77;;
17564;SDS011;62994;52.126;5.596;2023-04-03T12:24:49;1.05;;;0.80;;
17564;SDS011;62994;52.126;5.596;2023-04-03T12:27:20;0.95;;;0.95;;
17564;SDS011;62994;52.126;5.596;2023-04-03T12:29:58;0.57;;;0.57;;
17564;SDS011;62994;52.126;5.596;2023-04-03T12:32:41;0.75;;;0.75;;
17564;SDS011;62994;52.126;5.596;2023-04-03T12:35:18;0.60;;;0.60;;
17564;SDS011;62994;52.126;5.596;2023-04-03T12:38:10;3.17;;;0.90;;
17564;SDS011;62994;52.126;5.596;2023-04-03T12:40:48;0.88;;;0.88;;
17564;SDS011;62994;52.126;5.596;2023-04-03T12:43:29;1.08;;;0.90;;
17564;SDS011;62994;52.126;5.596;2023-04-03T12:46:11;1.05;;;0.77;;
17564;SDS011;62994;52.126;5.596;2023-04-03T12:48:47;1.23;;;0.77;;
17564;SDS011;62994;52.126;5.596;2023-04-03T12:51:16;1.35;;;0.77;;
17564;SDS011;62994;52.126;5.596;2023-04-03T12:53:50;3.88;;;0.73;;
17564;SDS011;62994;52.126;5.596;2023-04-03T12:56:28;3.05;;;1.10;;
17564;SDS011;62994;52.126;5.596;2023-04-03T12:58:56;1.17;;;0.80;;
17564;SDS011;62994;52.126;5.596;2023-04-03T13:01:45;0.95;;;0.90;;
17564;SDS011;62994;52.126;5.596;2023-04-03T13:04:20;0.70;;;0.60;;
17564;SDS011;62994;52.126;5.596;2023-04-03T13:06:54;1.48;;;1.10;;
17564;SDS011;62994;52.126;5.596;2023-04-03T13:09:22;0.80;;;0.80;;
17564;SDS011;62994;52.126;5.596;2023-04-03T13:11:54;1.45;;;1.00;;
17564;SDS011;62994;52.126;5.596;2023-04-03T13:14:26;2.67;;;0.70;;
17564;SDS011;62994;52.126;5.596;2023-04-03T13:17:02;1.10;;;1.00;;
17564;SDS011;62994;52.126;5.596;2023-04-03T13:19:31;3.08;;;0.60;;
17564;SDS011;62994;52.126;5.596;2023-04-03T13:21:58;1.33;;;0.63;;
17564;SDS011;62994;52.126;5.596;2023-04-03T13:24:32;0.90;;;0.90;;
17564;SDS011;62994;52.126;5.596;2023-04-03T13:27:02;1.90;;;1.08;;
17564;SDS011;62994;52.126;5.596;2023-04-03T13:29:31;1.10;;;1.00;;
17564;SDS011;62994;52.126;5.596;2023-04-03T13:32:03;2.30;;;0.90;;
17564;SDS011;62994;52.126;5.596;2023-04-03T13:34:35;0.75;;;0.70;;
17564;SDS011;62994;52.126;5.596;2023-04-03T13:37:03;0.85;;;0.85;;
17564;SDS011;62994;52.126;5.596;2023-04-03T13:39:31;1.23;;;1.02;;
17564;SDS011;62994;52.126;5.596;2023-04-03T13:42:00;3.05;;;0.90;;
17564;SDS011;62994;52.126;5.596;2023-04-03T13:44:40;1.48;;;0.80;;
17564;SDS011;62994;52.126;5.596;2023-04-03T13:47:19;2.37;;;1.13;;
17564;SDS011;62994;52.126;5.596;2023-04-03T13:50:00;1.75;;;0.80;;
17564;SDS011;62994;52.126;5.596;2023-04-03T13:52:33;2.10;;;0.77;;
17564;SDS011;62994;52.126;5.596;2023-04-03T13:55:15;1.85;;;0.90;;
17564;SDS011;62994;52.126;5.596;2023-04-03T13:57:51;1.10;;;1.00;;
17564;SDS011;62994;52.126;5.596;2023-04-03T14:00:21;7.85;;;0.90;;
17564;SDS011;62994;52.126;5.596;2023-04-03T14:03:11;1.52;;;0.95;;
17564;SDS011;62994;52.126;5.596;2023-04-03T14:05:48;2.05;;;0.90;;
17564;SDS011;62994;52.126;5.596;2023-04-03T14:08:15;0.98;;;0.70;;
17564;SDS011;62994;52.126;5.596;2023-04-03T14:10:42;3.67;;;1.00;;
17564;SDS011;62994;52.126;5.596;2023-04-03T14:13:14;2.05;;;1.10;;
17564;SDS011;62994;52.126;5.596;2023-04-03T14:15:43;1.05;;;0.90;;
17564;SDS011;62994;52.126;5.596;2023-04-03T14:18:13;2.53;;;1.10;;
17564;SDS011;62994;52.126;5.596;2023-04-03T14:20:41;1.58;;;1.00;;
17564;SDS011;62994;52.126;5.596;2023-04-03T14:23:09;2.35;;;1.13;;
17564;SDS011;62994;52.126;5.596;2023-04-03T14:25:36;1.20;;;1.08;;
17564;SDS011;62994;52.126;5.596;2023-04-03T14:28:06;1.15;;;0.95;;
17564;SDS011;62994;52.126;5.596;2023-04-03T14:30:42;2.92;;;1.25;;
17564;SDS011;62994;52.126;5.596;2023-04-03T14:33:10;3.10;;;1.20;;
17564;SDS011;62994;52.126;5.596;2023-04-03T14:35:42;1.40;;;1.23;;
17564;SDS011;62994;52.126;5.596;2023-04-03T14:38:12;1.88;;;1.50;;
17564;SDS011;62994;52.126;5.596;2023-04-03T14:40:51;1.00;;;1.00;;
17564;SDS011;62994;52.126;5.596;2023-04-03T14:43:18;1.20;;;0.98;;
17564;SDS011;62994;52.126;5.596;2023-04-03T14:45:47;1.35;;;1.20;;
17564;SDS011;62994;52.126;5.596;2023-04-03T14:48:18;1.25;;;0.90;;
17564;SDS011;62994;52.126;5.596;2023-04-03T14:50:47;1.15;;;0.98;;
17564;SDS011;62994;52.126;5.596;2023-04-03T14:53:15;1.30;;;1.20;;
17564;SDS011;62994;52.126;5.596;2023-04-03T14:55:44;1.60;;;0.95;;
17564;SDS011;62994;52.126;5.596;2023-04-03T14:58:12;4.65;;;1.25;;
17564;SDS011;62994;52.126;5.596;2023-04-03T15:00:41;1.30;;;1.20;;
17564;SDS011;62994;52.126;5.596;2023-04-03T15:03:12;1.40;;;1.20;;
17564;SDS011;62994;52.126;5.596;2023-04-03T15:05:41;1.77;;;1.30;;
17564;SDS011;62994;52.126;5.596;2023-04-03T15:08:13;2.75;;;1.30;;
17564;SDS011;62994;52.126;5.596;2023-04-03T15:10:45;3.00;;;1.10;;
17564;SDS011;62994;52.126;5.596;2023-04-03T15:13:12;1.65;;;1.00;;
17564;SDS011;62994;52.126;5.596;2023-04-03T15:15:40;1.92;;;1.27;;
17564;SDS011;62994;52.126;5.596;2023-04-03T15:18:10;1.23;;;1.10;;
17564;SDS011;62994;52.126;5.596;2023-04-03T15:20:43;1.23;;;1.13;;
17564;SDS011;62994;52.126;5.596;2023-04-03T15:23:11;2.42;;;1.88;;
17564;SDS011;62994;52.126;5.596;2023-04-03T15:25:40;1.08;;;1.02;;
17564;SDS011;62994;52.126;5.596;2023-04-03T15:28:09;2.30;;;1.40;;
17564;SDS011;62994;52.126;5.596;2023-04-03T15:30:44;1.33;;;1.23;;
17564;SDS011;62994;52.126;5.596;2023-04-03T15:33:11;1.48;;;1.05;;
17564;SDS011;62994;52.126;5.596;2023-04-03T15:35:38;1.17;;;1.08;;